Turret, Colorado
Current Conditions -  °F | °C
As of 6:35 AM on Friday 28 Nov 2014 (Local Time) from KANK Reporting Station
Clear Clear  
Wind Chill: 42°   Ceiling: Unl
Heat Index: 48°   Visibility: 10mi
Dew Point:   Wind: 15mph
Humidity: 18%   Direction: 220°SW
Pressure: 30.23"   Gusts: 22mph
Location:  38.5561°N, 106.066°W
Report Text: KANK 281335Z AUTO 22013G19KT 10SM CLR 09/M14 A3023 RMK AO1 T00871144
Loading
Personal Weather Stations






























Interactive Weather Map New forecast layout! Learn more

10-Day Weather Forecast

Advertisements
Track Severe Weather on mobile